logo

movable l030r02 in niger

NK TECHNOLOGIESl-

20171112-ACI-0.5-L Flashing LED with AC current over 0.5 A, maximum 100 A NKP-075-030-SP 30 Amp InputNKP-075-050-SP 50 Amp InputNKP-075-070-

(Pennisetum glaucum [L.] R. Br.) in Niger assessed by

, 2006: Diversity of wild and cultivated pearl millet accessions (Pennisetum glaucum [L.] R. Br.) in Niger assessed by microsatellite markers. Tag

/a>

BKN030 OVC065 02/M01 A2952 RMK AO2 PK WND UNAA 021000Z VRB01MPS 0200 R02/0200D FG VV DRRN: Niamey-Aero, Niger DRRN 021130Z 07010

Icotek QVT32-active key--

2018514- DELTA DE0551(ES 030-5) PARKER TYPE:310424;S/N:84915/87821 KNOLL KTS Woerner VPA-C.B/6/0/W/*/90/90/90/P R V-0-V M K-K-K L 0

STORZCBB-32-GEWESG-H-I-J-K-LGFAGFD-

DeltaES 030-5 TRELLEBORG TG52 01100-Z80V, total length L= 1.800,000 mm; material

alpha-L-arabinofuranosidase (ABF B) of Aspergillus niger -

Flipphi, M.J.; van Heuvel, M.; van der Veen, P.; Visser, J.; de Graaff, L.H., 1993: Cloning and characterization of the abfB gene coding

alpha-L-arabinofuranosidase (ABF B) of Aspergillus niger -

Flipphi, M.J.; van Heuvel, M.; van der Veen, P.; Visser, J.; de Graaff, L.H., 1993: Cloning and characterization of the abfB gene coding

Icotek QVT32-active key--

2018514- DELTA DE0551(ES 030-5) PARKER TYPE:310424;S/N:84915/87821 KNOLL KTS Woerner VPA-C.B/6/0/W/*/90/90/90/P R V-0-V M K-K-K L 0

/a>

PAPB 170853Z AUTO 03017G28KT 1/2SM -SN FZFG OVC006 M12/M12 A3009 EBBR 170850Z 08004KT 0200 R25L/0200N R25R/0275N R02/0250N FG BKN001

sativus L. Var. niger) induces detoxification enzymes in

Hanlon, P.R.; Webber, D.M.; Barnes, D.M., 2007: Aqueous extract from Spanish black radish (Raphanus sativus L. Var. niger) induces detoxification

(Pennisetum glaucum [L.] R. Br.) in Niger assessed by

, 2006: Diversity of wild and cultivated pearl millet accessions (Pennisetum glaucum [L.] R. Br.) in Niger assessed by microsatellite markers. Tag

(complex I) in ctiric-acid-accumulating Aspergillus niger

Schmidt, M.W.llrath, J.D.rner, A.W.iss, H., 1992: Disturbed assembyl of the respiratory chain NADH: Ubiquinione reductase (complex I) in cti

Icotek QVT32-active key-

2018514- DELTA DE0551(ES 030-5) PARKER TYPE:310424;S/N:84915/87821 KNOLL KTS Woerner VPA-C.B/6/0/W/*/90/90/90/P R V-0-V M K-K-K L 0

SPC8110 X07-DS-001-15 Q00L030 512KB 1024KB SPC8110F0A 256KX16

SPC8110 X07-DS-001-15 Q00L030 512KB 1024KB SPC8110F0A 256KX16DRAM R02 G10 G11 G12 GOO G01 G02 B10 B11 B12 BOO B01 B02 DE BO B1 B2

- L030R02 - Piccolo Series - - SF6 Service Carts -

- L030R02 - Piccolo Series - SF6 Gas Handling Device by Armaturen und Anlagen . The L030R02 model of the Piccolo series has been

/a>

PAPB 170853Z AUTO 03017G28KT 1/2SM -SN FZFG OVC006 M12/M12 A3009 EBBR 170850Z 08004KT 0200 R25L/0200N R25R/0275N R02/0250N FG BKN001

( Solanum lycopersicum L.) in semi-arid Niger | SpringerLink

(Solanum lycopersicum L.) growth characteristics0.956 0.061 0.030 1.922 0.480 0.951 0, mulch and nitrogen on sorghum in Niger